Portada
METAR-TAF:

METAR-TAF

Aeroports :

Kalaleh, Iran

latitud: 37-22-60N, longitud: 55-27-07E, altitud: 130 m

Observació

L'informe es va fer fa 1 hora i 12 minuts, a les 08:00 UTC
Vent 12 kt del Sud-Oest
Temperatura 33°C
Humitat 44%
Pressió 1011 hPa
Visibilitat 10 km o més
sense núvols per sota de 1500 mi sense presència de cumulonimbus.

METAR: OINE 100800Z 22012KT CAVOK 33/19 Q1011

Hora: 13:42 (09:12 UTC)


TAF: manca

Observacions i pronòstics meteorològics de més de 4000 aeroports (METAR i TAF).

Les estacions disponibles són els punts grocs i vermells al mapa.

Posi el ratolí al punt desitjat per veure el nom de l'estació.

Feu clic per veure les observacions i els pronòstics meteorològics.

Per canviar el mapa: feu clic els botons verds amb una creu de color negre per apropar; al botó verd amb un guió per allunyar la imatge; o en les fletxes verdes per a mapes adjacents.


METAR-TAF: